Etusivu
METAR-TAF:

METAR-TAF

Lentoasemat :

Hagåtña, Guam, Yhdysvallat

Antonio B. Won Patin kansainvälinen lentoasema

Leveyspiiri: 13-29N, Pituuspiiri: 144-48E, korkeus merenpinnasta: 91 m

Tämänhetkinen sää

Tämä raportti tehtiin 45 minuuttia sitten, kello 19.54 UTC
Tuuli 3 kn etelästä
Lämpötila 26°C
Kosteus 94%
Ilmanpaine 1010 hPa
Näkyvyys: 16.1 km
selkeää

METAR: PGUM 271954Z 17003KT 10SM CLR 26/25 A2983 RMK AO2 SLP092 T02610250

Aika: 06:39 (20:39 UTC)

Sääennuste

Tämä raportti tehtiin 3 tuntia ja 17 minuuttia sitten, kello 17.22 UTC
Ennuste voimassa 27. päivästä klo 18 UTC - 28. päivään klo 24 UTC
Tuuli 5 kn etelästä/lounaasta
Näkyvyys: 10 km
Muutamia pilviä 2000 ft:n korkeudessa
Muutamia pilviä 5000 ft:n korkeudessa
Hajanaisia pilviä 12000 ft:n korkeudessa
sadekuuroja näköpiirissä

TAF: PGUM 271722Z 2718/2824 21005KT P6SM VCSH FEW020 FEW050 SCT120

Säähavainnot ja -ennusteet yli 4000 lentoasemalta (METAR- ja TAF-raportit).

Käytössä olevat sääasemat on merkitty karttaan keltaisilla ja punaisilla pisteillä.

Aseta hiiri pisteen päälle nähdäksesi sääaseman nimen.

Klikkaa sitten nähdäksesi säähavainnot ja -ennusteet.

Kartan vaihtaminen: klikkaa mustalla rastilla varustettuja vihreitä pisteitä, niin voit zoomata sisään; viivalla varustettua vihreää pistettä, niin voit zoomata ulos tai vihreitä nuolia, niin pääset viereisille kartoille.


METAR-TAF: